Time;durP1;ratioP1;P1;durP2;ratioP2;P2;SDS_P1;SDS_P2;PMS_P1;PMS_P2;Temp;Humidity;BMP_temperature;BMP_pressure;BME280_temperature;BME280_humidity;BME280_pressure;Samples;Min_cycle;Max_cycle;Signal;HPM_P1;HPM_P2
2023/08/06 00:00:00;;;;;;;6.72;3.05;;;;;;;18.65;92.93;92850.50;5044268;28;20056;-71
2023/08/06 00:02:25;;;;;;;4.68;3.03;;;;;;;18.73;93.13;92861.28;5044163;28;20029;-71
2023/08/06 00:04:51;;;;;;;9.07;3.58;;;;;;;18.95;91.84;92883.63;5045085;28;20326;-71
2023/08/06 00:07:16;;;;;;;8.48;3.53;;;;;;;19.09;90.70;92882.81;5044866;28;20097;-73
2023/08/06 00:09:42;;;;;;;9.20;4.22;;;;;;;19.15;91.06;92883.94;5044907;28;20274;-72
2023/08/06 00:12:07;;;;;;;10.27;4.03;;;;;;;19.15;91.62;92873.94;5045151;28;20017;-72
2023/08/06 00:14:33;;;;;;;6.38;3.38;;;;;;;19.19;91.94;92863.09;5044865;28;20021;-72
2023/08/06 00:16:58;;;;;;;9.27;3.80;;;;;;;19.23;93.04;92853.84;5043882;28;20079;-72
2023/08/06 00:19:24;;;;;;;7.35;3.47;;;;;;;19.29;92.80;92862.28;5044770;28;20092;-71
2023/08/06 00:21:49;;;;;;;10.52;4.00;;;;;;;19.36;92.46;92866.91;5044736;28;20032;-72
2023/08/06 00:24:15;;;;;;;8.35;3.63;;;;;;;19.43;91.42;92867.63;5045065;28;20100;-72
2023/08/06 00:26:40;;;;;;;5.55;2.95;;;;;;;19.48;88.55;92871.09;5044772;28;20296;-71
2023/08/06 00:29:05;;;;;;;7.75;2.95;;;;;;;19.43;86.94;92870.34;5044642;28;20022;-71
2023/08/06 00:31:31;;;;;;;10.18;3.20;;;;;;;19.32;87.53;92860.75;5044800;28;20307;-72
2023/08/06 00:33:56;;;;;;;8.50;3.05;;;;;;;19.34;88.07;92861.13;5044579;28;20026;-73
2023/08/06 00:36:22;;;;;;;5.28;2.60;;;;;;;19.26;87.78;92868.50;5044745;28;20059;-72
2023/08/06 00:38:47;;;;;;;5.25;2.58;;;;;;;19.24;88.25;92857.31;5044502;28;20025;-72
2023/08/06 00:41:12;;;;;;;5.70;2.63;;;;;;;19.28;88.49;92849.19;5044337;28;20041;-72
2023/08/06 00:43:38;;;;;;;4.93;2.78;;;;;;;19.27;88.68;92858.44;5044411;28;20052;-72
2023/08/06 00:46:03;;;;;;;8.18;2.80;;;;;;;19.30;89.35;92839.53;5044486;28;20096;-72
2023/08/06 00:48:29;;;;;;;4.43;2.60;;;;;;;19.31;88.07;92838.34;5042625;28;20025;-72
2023/08/06 00:50:55;;;;;;;4.60;2.45;;;;;;;19.27;86.89;92840.31;5044211;28;20315;-72
2023/08/06 00:53:20;;;;;;;4.47;2.38;;;;;;;19.25;87.75;92842.63;5043947;28;20392;-72
2023/08/06 00:55:46;;;;;;;7.25;3.10;;;;;;;19.22;88.04;92846.13;5043209;28;20045;-72
2023/08/06 00:58:13;;;;;;;6.05;2.80;;;;;;;19.20;87.31;92830.31;5044239;28;20031;-72
2023/08/06 01:00:39;;;;;;;4.40;2.83;;;;;;;19.14;86.46;92829.19;5043904;28;20104;-72
2023/08/06 01:03:04;;;;;;;4.25;2.72;;;;;;;19.13;87.09;92827.66;5043963;28;20243;-72
2023/08/06 01:05:30;;;;;;;5.95;3.20;;;;;;;19.09;87.76;92815.31;5043996;28;20083;-72
2023/08/06 01:07:56;;;;;;;5.32;2.92;;;;;;;19.09;87.38;92807.19;5044204;28;20335;-72
2023/08/06 01:10:21;;;;;;;8.05;4.90;;;;;;;19.07;88.08;92796.81;5043914;28;20093;-72
2023/08/06 01:13:04;;;;;;;10.85;4.93;;;;;;;19.03;88.45;92813.03;5043865;28;20026;-72
2023/08/06 01:15:41;;;;;;;5.95;3.85;;;;;;;19.07;88.57;92820.31;5043958;28;20021;-73
2023/08/06 01:18:06;;;;;;;11.48;5.78;;;;;;;19.00;86.75;92802.22;5043714;28;20087;-72
2023/08/06 01:20:32;;;;;;;8.65;6.18;;;;;;;18.91;86.05;92807.25;5043112;28;20037;-73
2023/08/06 01:22:57;;;;;;;10.15;6.93;;;;;;;18.82;86.61;92802.28;5043538;28;20064;-72
2023/08/06 01:25:30;;;;;;;9.93;6.18;;;;;;;18.84;88.70;92789.94;5043770;28;20047;-72
2023/08/06 01:28:04;;;;;;;9.50;5.88;;;;;;;18.91;88.52;92794.56;5043690;28;20033;-72
2023/08/06 01:30:37;;;;;;;8.32;5.07;;;;;;;18.89;88.25;92786.06;5043571;28;20037;-72
2023/08/06 01:33:05;;;;;;;6.90;4.00;;;;;;;18.79;86.92;92790.34;5043649;28;20029;-73
2023/08/06 01:35:32;;;;;;;8.85;4.80;;;;;;;18.80;89.08;92799.97;5043599;28;20223;-73
2023/08/06 01:37:59;;;;;;;7.88;5.78;;;;;;;18.72;88.99;92784.16;5043617;28;20327;-73
2023/08/06 01:40:27;;;;;;;10.25;5.45;;;;;;;18.65;89.50;92772.22;5043341;28;20092;-72
2023/08/06 01:42:52;;;;;;;11.85;5.80;;;;;;;18.60;89.90;92775.34;5043382;28;20057;-74
2023/08/06 01:45:17;;;;;;;6.28;4.40;;;;;;;18.63;89.66;92768.38;5043544;28;20021;-74
2023/08/06 01:47:43;;;;;;;8.55;4.15;;;;;;;18.69;89.69;92782.25;5043252;28;20024;-74
2023/08/06 01:50:09;;;;;;;8.77;5.53;;;;;;;18.65;89.98;92785.72;5043346;28;20021;-74
2023/08/06 01:52:34;;;;;;;7.60;4.50;;;;;;;18.61;90.84;92786.91;5043145;28;20032;-74
2023/08/06 01:55:00;;;;;;;6.03;4.05;;;;;;;18.40;92.19;92785.78;5043097;28;20291;-73
2023/08/06 01:57:25;;;;;;;11.45;4.40;;;;;;;18.42;93.09;92780.78;5043095;28;20029;-73
2023/08/06 01:59:51;;;;;;;9.80;4.97;;;;;;;18.42;93.18;92786.16;5042469;28;20017;-73
2023/08/06 02:02:16;;;;;;;7.30;4.13;;;;;;;18.33;92.86;92774.22;5043012;28;20025;-73
2023/08/06 02:04:41;;;;;;;6.60;3.90;;;;;;;18.26;93.75;92766.94;5043040;28;20067;-73
2023/08/06 02:07:07;;;;;;;8.02;4.65;;;;;;;18.21;93.97;92770.00;5042922;28;20014;-73
2023/08/06 02:09:32;;;;;;;5.78;3.88;;;;;;;18.17;94.58;92770.00;5042885;28;20041;-73
2023/08/06 02:11:58;;;;;;;5.85;3.88;;;;;;;18.18;94.33;92776.94;5041885;28;20028;-73
2023/08/06 02:14:23;;;;;;;8.05;3.38;;;;;;;18.14;93.29;92768.09;5042994;28;20460;-73
2023/08/06 02:16:50;;;;;;;8.07;4.03;;;;;;;18.15;94.39;92777.72;5043024;28;20342;-73
2023/08/06 02:19:15;;;;;;;5.13;3.65;;;;;;;18.13;95.65;92798.91;5042850;28;20025;-73
2023/08/06 02:21:40;;;;;;;8.93;3.50;;;;;;;18.08;94.75;92807.38;5042612;28;20025;-72
2023/08/06 02:24:06;;;;;;;7.70;2.83;;;;;;;17.94;94.65;92800.06;5042896;28;20071;-72
2023/08/06 02:26:31;;;;;;;8.05;4.15;;;;;;;17.92;96.31;92782.75;5042688;28;20219;-72
2023/08/06 02:28:57;;;;;;;12.13;4.60;;;;;;;17.93;97.14;92797.75;5042678;28;20022;-73
2023/08/06 02:31:22;;;;;;;6.95;3.85;;;;;;;17.95;97.34;92790.84;5042994;28;20026;-73
2023/08/06 02:33:47;;;;;;;12.32;4.00;;;;;;;17.86;97.03;92770.81;5042928;28;20092;-72
2023/08/06 02:36:13;;;;;;;9.85;4.47;;;;;;;17.91;97.82;92786.59;5042496;28;20025;-72
2023/08/06 02:38:39;;;;;;;5.78;3.33;;;;;;;17.91;96.85;92800.06;5042759;28;20052;-72
2023/08/06 02:41:04;;;;;;;9.95;3.55;;;;;;;17.89;97.29;92821.25;5042657;28;20048;-72
2023/08/06 02:43:30;;;;;;;5.75;3.38;;;;;;;17.93;97.59;92830.09;5042505;28;20041;-72
2023/08/06 02:46:02;;;;;;;4.75;2.78;;;;;;;17.96;97.32;92813.94;5042608;28;20319;-72
2023/08/06 02:48:27;;;;;;;6.07;3.15;;;;;;;18.00;96.79;92797.75;5042473;28;20025;-73
2023/08/06 02:50:53;;;;;;;6.20;3.60;;;;;;;18.09;97.12;92784.66;5041561;28;20056;-73
2023/08/06 02:53:18;;;;;;;7.05;3.85;;;;;;;18.12;97.14;92775.81;5042783;28;20021;-74
2023/08/06 02:55:47;;;;;;;9.60;3.80;;;;;;;18.21;97.41;92776.16;5042538;28;20037;-74
2023/08/06 02:58:14;;;;;;;5.32;3.45;;;;;;;18.23;97.26;92763.06;5042375;28;20116;-74
2023/08/06 03:00:39;;;;;;;7.85;3.72;;;;;;;18.28;97.19;92769.22;5042448;28;20080;-74
2023/08/06 03:03:04;;;;;;;14.50;3.65;;;;;;;18.38;98.05;92763.81;5041364;28;20032;-74
2023/08/06 03:05:30;;;;;;;7.15;3.38;;;;;;;18.42;96.79;92748.41;5042565;28;20024;-74
2023/08/06 03:07:55;;;;;;;6.85;3.50;;;;;;;18.42;96.40;92750.34;5042313;28;20026;-74
2023/08/06 03:10:21;;;;;;;8.70;3.50;;;;;;;18.53;97.01;92764.56;5042379;28;20033;-74
2023/08/06 03:12:46;;;;;;;6.85;2.90;;;;;;;18.54;97.06;92754.53;5045943;28;20311;-74
2023/08/06 03:15:12;;;;;;;8.00;2.92;;;;;;;18.53;96.83;92779.97;5046093;28;20017;-75
2023/08/06 03:17:37;;;;;;;5.93;2.80;;;;;;;18.49;96.49;92744.16;5046138;28;20017;-74
2023/08/06 03:20:03;;;;;;;4.55;2.60;;;;;;;18.45;95.79;92709.06;5046186;28;20253;-74
2023/08/06 03:22:28;;;;;;;3.67;2.35;;;;;;;18.42;94.20;92717.97;5045842;28;20025;-75
2023/08/06 03:24:54;;;;;;;5.35;2.88;;;;;;;18.45;94.52;92733.34;5045927;28;20096;-75
2023/08/06 03:27:19;;;;;;;5.57;2.78;;;;;;;18.52;96.45;92751.44;5044795;28;20068;-75
2023/08/06 03:29:45;;;;;;;4.65;2.72;;;;;;;18.56;96.34;92763.00;5045833;28;20132;-75
2023/08/06 03:32:10;;;;;;;5.97;3.00;;;;;;;18.58;96.87;92771.47;5045905;28;20028;-75
2023/08/06 03:34:36;;;;;;;5.30;3.28;;;;;;;18.55;97.97;92778.44;5044652;28;20021;-75
2023/08/06 03:37:01;;;;;;;5.43;2.78;;;;;;;18.57;99.10;92767.25;5045673;28;20028;-75
2023/08/06 03:39:27;;;;;;;6.50;3.40;;;;;;;18.64;99.50;92770.72;5045870;28;20026;-75
2023/08/06 03:41:52;;;;;;;8.07;3.15;;;;;;;18.80;98.04;92774.91;5045643;28;20093;-75
2023/08/06 03:44:18;;;;;;;7.35;3.03;;;;;;;18.90;96.44;92784.91;5045801;28;20044;-76
2023/08/06 03:46:43;;;;;;;6.45;3.15;;;;;;;18.94;95.75;92774.84;5045626;28;20180;-76
2023/08/06 03:49:08;;;;;;;4.32;3.03;;;;;;;18.97;95.27;92787.59;5045428;28;20345;-75
2023/08/06 03:51:34;;;;;;;6.03;3.00;;;;;;;19.07;96.07;92788.72;5045472;28;20025;-76
2023/08/06 03:53:59;;;;;;;7.28;3.22;;;;;;;19.10;96.94;92793.31;5044249;28;20022;-75
2023/08/06 03:56:25;;;;;;;7.55;3.60;;;;;;;19.09;96.01;92799.88;5045328;28;20055;-75
2023/08/06 03:58:50;;;;;;;23.20;3.00;;;;;;;19.10;95.60;92790.59;5045575;28;20015;-75
2023/08/06 04:01:16;;;;;;;5.93;3.30;;;;;;;18.98;96.47;92794.50;5045370;28;20059;-73
2023/08/06 04:03:41;;;;;;;8.50;3.78;;;;;;;19.02;96.06;92819.56;5045308;28;20120;-74
2023/08/06 04:06:07;;;;;;;5.60;3.13;;;;;;;18.98;96.04;92805.31;5045005;28;20021;-73
2023/08/06 04:08:32;;;;;;;7.50;3.38;;;;;;;19.04;96.24;92811.84;5045119;28;20092;-73
2023/08/06 04:10:58;;;;;;;6.95;3.75;;;;;;;19.11;95.61;92808.38;5045015;28;20038;-73
2023/08/06 04:13:23;;;;;;;6.13;3.00;;;;;;;19.18;95.61;92807.56;5045174;28;20418;-73
2023/08/06 04:15:49;;;;;;;6.10;3.45;;;;;;;19.18;94.56;92811.03;5045144;28;20338;-73
2023/08/06 04:18:14;;;;;;;9.52;3.80;;;;;;;19.19;94.61;92811.78;5045031;28;20044;-73
2023/08/06 04:20:46;;;;;;;8.25;3.40;;;;;;;19.14;93.79;92817.63;5043625;28;20033;-74
2023/08/06 04:23:12;;;;;;;7.40;3.58;;;;;;;19.04;94.32;92808.38;5044145;28;20365;-73
2023/08/06 04:25:38;;;;;;;7.97;3.67;;;;;;;19.04;95.08;92805.69;5044783;28;20068;-74
2023/08/06 04:28:03;;;;;;;6.38;3.85;;;;;;;19.03;95.78;92802.22;5044789;28;20025;-73
2023/08/06 04:30:29;;;;;;;8.52;3.53;;;;;;;18.99;94.90;92801.47;5044633;28;20025;-73
2023/08/06 04:32:56;;;;;;;6.22;3.92;;;;;;;18.95;95.23;92791.81;5044279;28;20017;-74
2023/08/06 04:35:22;;;;;;;5.50;3.13;;;;;;;18.97;95.69;92781.41;5044540;28;20053;-74
2023/08/06 04:37:48;;;;;;;5.40;3.50;;;;;;;18.98;94.68;92778.31;5044831;28;20029;-73
2023/08/06 04:40:13;;;;;;;5.57;3.65;;;;;;;18.94;94.91;92777.56;5044613;28;20324;-73
2023/08/06 04:42:39;;;;;;;7.80;3.50;;;;;;;18.97;94.82;92768.69;5044409;28;20032;-74
2023/08/06 04:45:05;;;;;;;8.48;3.42;;;;;;;18.95;94.09;92762.13;5044309;28;20097;-74
2023/08/06 04:47:30;;;;;;;8.02;3.78;;;;;;;18.95;94.92;92748.63;5044543;28;20037;-74
2023/08/06 04:49:55;;;;;;;6.65;4.32;;;;;;;18.99;95.24;92736.66;5044589;28;20201;-74
2023/08/06 04:52:21;;;;;;;6.82;3.58;;;;;;;19.06;95.64;92740.50;5044439;28;20021;-73
2023/08/06 04:54:46;;;;;;;11.50;4.70;;;;;;;19.00;95.44;92735.47;5044389;28;20247;-73
2023/08/06 04:57:12;;;;;;;8.93;4.10;;;;;;;18.99;96.28;92725.06;5044240;28;20364;-73
2023/08/06 04:59:37;;;;;;;8.13;5.07;;;;;;;18.97;96.50;92716.59;5044190;28;20375;-73
2023/08/06 05:02:03;;;;;;;8.35;4.40;;;;;;;18.96;97.34;92720.47;5043950;28;20026;-73
2023/08/06 05:04:28;;;;;;;8.00;4.78;;;;;;;19.03;97.99;92720.41;5044245;28;20101;-73
2023/08/06 05:06:54;;;;;;;8.88;5.15;;;;;;;19.06;96.91;92711.53;5044000;28;20037;-73
2023/08/06 05:09:19;;;;;;;7.75;3.80;;;;;;;19.14;96.87;92714.97;5043985;28;20223;-73
2023/08/06 05:11:47;;;;;;;9.95;4.85;;;;;;;19.24;96.26;92723.00;5043905;28;20021;-73
2023/08/06 05:14:12;;;;;;;8.15;5.28;;;;;;;19.33;94.08;92729.91;5043836;28;20067;-73
2023/08/06 05:16:37;;;;;;;6.95;4.88;;;;;;;19.26;94.06;92730.72;5043988;28;20021;-74
2023/08/06 05:19:03;;;;;;;11.30;5.18;;;;;;;19.31;94.03;92735.69;5043747;28;20219;-73
2023/08/06 05:21:28;;;;;;;8.38;5.10;;;;;;;19.39;93.21;92731.78;5043768;28;20308;-73
2023/08/06 05:23:54;;;;;;;8.27;4.75;;;;;;;19.44;92.78;92720.56;5043569;28;20217;-73
2023/08/06 05:26:19;;;;;;;7.78;5.32;;;;;;;19.60;93.42;92727.41;5043922;28;20017;-74
2023/08/06 05:28:45;;;;;;;8.65;5.07;;;;;;;19.80;92.84;92714.94;5043702;28;20017;-73
2023/08/06 05:31:11;;;;;;;9.07;5.80;;;;;;;20.07;93.36;92706.22;5043564;28;20103;-73
2023/08/06 05:33:36;;;;;;;6.90;4.63;;;;;;;20.24;90.35;92707.19;5043530;28;20065;-73
2023/08/06 05:36:02;;;;;;;6.25;4.72;;;;;;;20.39;87.43;92713.22;5043433;28;20215;-72
2023/08/06 05:38:27;;;;;;;7.50;4.22;;;;;;;20.29;86.19;92711.41;5043398;28;20021;-72
2023/08/06 05:40:53;;;;;;;5.45;4.22;;;;;;;20.15;87.38;92710.38;5043282;28;20017;-72
2023/08/06 05:43:21;;;;;;;5.88;4.53;;;;;;;19.95;88.59;92710.19;5043518;28;20310;-72
2023/08/06 05:45:49;;;;;;;5.28;4.03;;;;;;;19.81;86.73;92696.78;5043097;28;20024;-73
2023/08/06 05:48:15;;;;;;;6.50;4.68;;;;;;;19.81;87.41;92702.19;5042933;28;20088;-72
2023/08/06 05:50:40;;;;;;;6.00;4.50;;;;;;;19.71;87.99;92703.03;5043058;28;20342;-73
2023/08/06 05:53:06;;;;;;;8.20;5.82;;;;;;;19.72;87.40;92716.16;5043213;28;20014;-73
2023/08/06 05:55:32;;;;;;;13.15;5.95;;;;;;;19.79;88.82;92718.81;5043006;28;20096;-72
2023/08/06 05:57:58;;;;;;;9.23;7.60;;;;;;;19.91;86.92;92717.56;5043166;28;20214;-73
2023/08/06 06:00:23;;;;;;;11.55;7.32;;;;;;;20.10;86.06;92729.75;5042641;28;20033;-73
2023/08/06 06:02:49;;;;;;;17.58;8.18;;;;;;;20.22;85.07;92742.00;5043068;28;20022;-73
2023/08/06 06:05:14;;;;;;;12.25;7.80;;;;;;;20.39;85.14;92743.00;5043034;28;20029;-73
2023/08/06 06:07:40;;;;;;;11.95;8.23;;;;;;;20.46;84.81;92734.81;5042789;28;20255;-71
2023/08/06 06:10:06;;;;;;;12.15;8.13;;;;;;;20.44;82.14;92742.56;5042775;28;20050;-73
2023/08/06 06:12:31;;;;;;;13.88;9.85;;;;;;;20.44;82.92;92737.91;5042921;28;20018;-73
2023/08/06 06:14:58;;;;;;;13.02;9.48;;;;;;;20.46;81.29;92742.16;5042593;28;20056;-73
2023/08/06 06:17:23;;;;;;;11.82;9.18;;;;;;;20.47;80.89;92757.22;5042713;28;20096;-72
2023/08/06 06:19:49;;;;;;;14.88;11.60;;;;;;;20.48;81.92;92747.94;5042761;28;20032;-72
2023/08/06 06:22:14;;;;;;;13.75;10.75;;;;;;;20.52;80.80;92776.50;5042759;28;20045;-72
2023/08/06 06:24:40;;;;;;;17.58;10.60;;;;;;;20.46;80.74;92761.88;5042542;28;20087;-71
2023/08/06 06:27:05;;;;;;;16.75;9.85;;;;;;;20.34;80.20;92770.50;5042811;28;20379;-72
2023/08/06 06:29:31;;;;;;;14.70;9.63;;;;;;;20.31;80.41;92765.88;5042799;28;20220;-72
2023/08/06 06:31:56;;;;;;;10.20;7.15;;;;;;;20.26;80.55;92763.63;5042801;28;20316;-72
2023/08/06 06:34:22;;;;;;;13.70;8.80;;;;;;;20.29;81.62;92768.22;5042870;28;20315;-72
2023/08/06 06:36:47;;;;;;;12.52;8.93;;;;;;;20.28;79.44;92782.94;5042459;28;20045;-72
2023/08/06 06:39:13;;;;;;;12.20;9.35;;;;;;;20.29;79.13;92774.38;5042690;28;20296;-72
2023/08/06 06:41:38;;;;;;;11.98;9.20;;;;;;;20.37;79.81;92784.00;5042660;28;20059;-72
2023/08/06 06:44:05;;;;;;;13.50;9.13;;;;;;;20.52;80.30;92783.88;5042598;28;20075;-72
2023/08/06 06:46:30;;;;;;;15.75;9.93;;;;;;;20.49;77.93;92804.34;5044262;28;20025;-73
2023/08/06 06:48:55;;;;;;;12.75;9.35;;;;;;;20.35;77.78;92789.03;5046633;28;20029;-73
2023/08/06 06:51:21;;;;;;;13.15;9.18;;;;;;;20.22;79.44;92801.53;5045503;28;20018;-73
2023/08/06 06:53:46;;;;;;;9.30;7.47;;;;;;;20.00;79.27;92801.69;5046528;28;20025;-72
2023/08/06 06:56:12;;;;;;;9.50;7.30;;;;;;;19.86;78.85;92815.31;5046574;28;20021;-72
2023/08/06 06:58:39;;;;;;;8.38;6.22;;;;;;;19.81;78.54;92815.75;5046433;28;20045;-71
2023/08/06 07:01:04;;;;;;;10.02;7.22;;;;;;;19.84;79.67;92821.13;5046320;28;20103;-72
2023/08/06 07:03:30;;;;;;;9.75;7.55;;;;;;;19.95;77.04;92831.09;5046315;28;20104;-72
2023/08/06 07:05:59;;;;;;;11.15;7.43;;;;;;;20.01;77.90;92830.28;5046182;28;20013;-72
2023/08/06 07:08:25;;;;;;;8.25;6.20;;;;;;;20.01;75.01;92840.34;5046225;28;20327;-73
2023/08/06 07:10:50;;;;;;;9.27;6.78;;;;;;;20.10;76.41;92843.34;5046241;28;20102;-73
2023/08/06 07:13:16;;;;;;;6.75;4.60;;;;;;;20.10;72.94;92848.75;5046261;28;20033;-73
2023/08/06 07:15:42;;;;;;;7.45;3.95;;;;;;;20.04;70.37;92853.03;5045917;28;20033;-73
2023/08/06 07:18:07;;;;;;;10.10;3.53;;;;;;;19.96;70.10;92859.66;5045885;28;20135;-72
2023/08/06 07:20:34;;;;;;;3.83;3.10;;;;;;;19.95;69.17;92847.31;5045974;28;20200;-72
2023/08/06 07:23:00;;;;;;;5.22;3.55;;;;;;;19.81;68.68;92848.94;5044803;28;20258;-72
2023/08/06 07:25:25;;;;;;;4.30;2.75;;;;;;;19.95;67.62;92844.63;5045902;28;20029;-73
2023/08/06 07:27:51;;;;;;;3.60;2.25;;;;;;;20.07;66.40;92843.38;5045925;28;20071;-72
2023/08/06 07:30:16;;;;;;;4.88;2.10;;;;;;;20.15;64.71;92842.94;5045864;28;20094;-73
2023/08/06 07:32:42;;;;;;;3.13;2.00;;;;;;;20.29;65.52;92841.25;5045732;28;20096;-73
2023/08/06 07:35:12;;;;;;;7.20;2.45;;;;;;;20.48;64.16;92850.78;5045705;28;20096;-72
2023/08/06 07:37:38;;;;;;;2.83;1.70;;;;;;;20.55;62.40;92842.59;5045642;28;20032;-72
2023/08/06 07:40:04;;;;;;;6.53;2.28;;;;;;;20.60;64.73;92850.31;5045714;28;20029;-72
2023/08/06 07:42:29;;;;;;;3.42;2.03;;;;;;;20.63;64.64;92849.50;5045611;28;20080;-72
2023/08/06 07:44:56;;;;;;;4.35;2.25;;;;;;;20.76;63.95;92845.16;5045629;28;20032;-72
2023/08/06 07:47:22;;;;;;;4.03;2.10;;;;;;;20.81;64.42;92843.94;5044373;28;20100;-72
2023/08/06 07:49:47;;;;;;;4.03;2.40;;;;;;;20.90;63.29;92852.34;5045436;28;20067;-72
2023/08/06 07:52:13;;;;;;;2.92;1.95;;;;;;;21.03;64.14;92844.47;5045178;28;20327;-71
2023/08/06 07:54:38;;;;;;;3.63;2.25;;;;;;;21.00;61.68;92837.16;5045345;28;20029;-71
2023/08/06 07:57:04;;;;;;;4.55;2.28;;;;;;;21.00;62.07;92854.19;5044590;28;20033;-71
2023/08/06 07:59:30;;;;;;;3.58;2.33;;;;;;;21.01;61.06;92849.53;5044768;28;20052;-71
2023/08/06 08:01:55;;;;;;;3.55;2.50;;;;;;;21.00;60.97;92843.34;5045079;28;20028;-71
2023/08/06 08:04:21;;;;;;;3.50;2.53;;;;;;;21.11;62.72;92839.75;5045354;28;20049;-72
2023/08/06 08:06:47;;;;;;;3.85;2.03;;;;;;;21.22;61.01;92833.03;5045101;28;20026;-71
2023/08/06 08:09:13;;;;;;;5.70;2.55;;;;;;;21.23;60.30;92831.84;5045140;28;20025;-74
2023/08/06 08:11:39;;;;;;;3.45;2.30;;;;;;;21.46;59.57;92837.81;5045068;28;20052;-73
2023/08/06 08:14:04;;;;;;;10.57;3.80;;;;;;;21.49;60.86;92845.88;5044981;28;20021;-73
2023/08/06 08:16:30;;;;;;;6.45;2.60;;;;;;;21.48;61.20;92838.94;5045076;28;20033;-83
2023/08/06 08:18:55;;;;;;;4.22;2.75;;;;;;;21.50;61.63;92835.84;5045028;28;20028;-81
2023/08/06 08:21:20;;;;;;;5.75;3.25;;;;;;;21.57;62.17;92841.16;5045137;28;20028;-81
2023/08/06 08:23:46;;;;;;;7.60;3.30;;;;;;;21.76;62.54;92845.94;5044772;28;20084;-75
2023/08/06 08:26:11;;;;;;;5.25;3.95;;;;;;;21.88;60.27;92847.34;5044704;28;20251;-76
2023/08/06 08:28:37;;;;;;;6.38;3.30;;;;;;;22.00;58.45;92846.78;5044891;28;20033;-77
2023/08/06 08:31:02;;;;;;;4.63;3.20;;;;;;;22.02;58.76;92855.25;5044631;28;20032;-76
2023/08/06 08:33:28;;;;;;;5.60;3.50;;;;;;;21.90;60.24;92857.75;5042857;28;20021;-76
2023/08/06 08:35:53;;;;;;;3.92;3.05;;;;;;;21.86;60.11;92838.03;5042739;28;20072;-76
2023/08/06 08:38:18;;;;;;;5.45;2.85;;;;;;;21.89;60.40;92843.44;5044180;28;20013;-76
2023/08/06 08:40:51;;;;;;;4.85;2.63;;;;;;;21.94;58.17;92844.91;5043933;28;20430;-77
2023/08/06 08:43:20;;;;;;;4.07;2.53;;;;;;;21.91;57.33;92848.44;5042444;28;20029;-76
2023/08/06 08:45:49;;;;;;;6.32;3.13;;;;;;;21.82;56.52;92841.59;5042196;28;20028;-76
2023/08/06 08:48:16;;;;;;;2.90;2.30;;;;;;;21.83;57.07;92839.63;5041860;28;20026;-76
2023/08/06 08:50:44;;;;;;;5.30;2.80;;;;;;;22.00;58.75;92832.41;5041256;28;20092;-76
2023/08/06 08:53:12;;;;;;;7.53;2.65;;;;;;;22.12;56.64;92828.38;5041066;28;20190;-76
2023/08/06 08:55:39;;;;;;;4.95;2.97;;;;;;;22.29;58.28;92829.28;5041059;28;20341;-76
2023/08/06 08:58:04;;;;;;;4.57;2.72;;;;;;;22.34;55.48;92834.25;5041429;28;20052;-76
2023/08/06 09:00:30;;;;;;;4.65;2.55;;;;;;;22.42;56.60;92827.53;5042345;28;20200;-76
2023/08/06 09:02:56;;;;;;;3.53;2.45;;;;;;;22.45;54.02;92824.00;5041821;28;20331;-76
2023/08/06 09:05:23;;;;;;;5.45;2.70;;;;;;;22.51;55.47;92825.06;5044254;28;20021;-76
2023/08/06 09:07:52;;;;;;;4.32;2.40;;;;;;;22.58;53.89;92824.19;5043892;28;20025;-77
2023/08/06 09:10:23;;;;;;;6.63;2.78;;;;;;;22.66;54.54;92831.00;5042410;28;20049;-76
2023/08/06 09:12:50;;;;;;;6.53;2.58;;;;;;;22.68;54.18;92827.91;5042675;28;20024;-76
2023/08/06 09:15:16;;;;;;;8.10;2.85;;;;;;;22.74;52.57;92818.09;5042551;28;20216;-76
2023/08/06 09:17:41;;;;;;;3.90;2.75;;;;;;;22.83;54.85;92821.00;5043674;28;20021;-76
2023/08/06 09:20:14;;;;;;;4.65;2.40;;;;;;;22.89;54.06;92832.94;5043856;28;20017;-76
2023/08/06 09:22:39;;;;;;;4.15;2.53;;;;;;;22.87;52.22;92813.56;5043699;28;20052;-76
2023/08/06 09:25:09;;;;;;;3.30;2.30;;;;;;;22.58;51.65;92819.50;5043393;28;20029;-76
2023/08/06 09:27:38;;;;;;;6.05;2.70;;;;;;;22.62;54.38;92806.63;5042149;28;20377;-81
2023/08/06 09:30:05;;;;;;;4.53;2.75;;;;;;;22.71;53.76;92800.66;5043611;28;20029;-81
2023/08/06 09:32:47;;;;;;;4.20;2.05;;;;;;;22.87;52.80;92810.84;5042270;28;20215;-81
2023/08/06 09:35:16;;;;;;;3.35;2.15;;;;;;;22.94;52.86;92813.44;5043288;28;20025;-81
2023/08/06 09:37:42;;;;;;;7.22;2.25;;;;;;;23.06;52.77;92803.94;5043504;28;20025;-81
2023/08/06 09:40:31;;;;;;;4.38;2.20;;;;;;;23.26;51.26;92771.28;5042229;28;20079;-81
2023/08/06 09:42:57;;;;;;;2.65;1.45;;;;;;;23.21;50.51;92796.25;5043231;28;20113;-81
2023/08/06 09:45:23;;;;;;;7.95;2.83;;;;;;;23.18;51.40;92791.66;5043470;28;20021;-80
2023/08/06 09:47:56;;;;;;;3.92;2.40;;;;;;;23.17;51.69;92798.28;5043208;28;20025;-81
2023/08/06 09:50:21;;;;;;;5.13;2.58;;;;;;;23.09;50.42;92789.50;5043266;28;20025;-81
2023/08/06 09:52:50;;;;;;;4.43;2.90;;;;;;;23.16;52.49;92802.16;5043117;28;20024;-81
2023/08/06 09:55:16;;;;;;;2.88;1.88;;;;;;;23.26;51.41;92803.91;5041911;28;20025;-81
2023/08/06 09:57:43;;;;;;;4.47;2.42;;;;;;;23.32;48.72;92796.78;5043142;28;20028;-81
2023/08/06 10:00:10;;;;;;;3.78;2.30;;;;;;;23.18;49.15;92789.72;5042981;28;20025;-80
2023/08/06 10:02:40;;;;;;;3.80;2.70;;;;;;;23.32;51.02;92801.47;5042858;28;20075;-80
2023/08/06 10:05:07;;;;;;;5.20;2.47;;;;;;;23.22;50.22;92806.72;5041837;28;20044;-81
2023/08/06 10:07:33;;;;;;;3.88;2.03;;;;;;;23.27;50.12;92810.13;5042982;28;20328;-81
2023/08/06 10:09:59;;;;;;;4.03;2.17;;;;;;;23.33;49.97;92817.38;5042834;28;20037;-81
2023/08/06 10:12:25;;;;;;;3.78;2.15;;;;;;;23.34;50.62;92812.69;5042543;28;20048;-81
2023/08/06 10:14:54;;;;;;;3.03;1.90;;;;;;;23.38;51.04;92819.59;5043053;28;20021;-80
2023/08/06 10:17:23;;;;;;;3.95;2.45;;;;;;;23.44;50.69;92809.00;5042981;28;20021;-81
2023/08/06 10:19:50;;;;;;;4.47;2.20;;;;;;;23.55;52.09;92803.31;5042968;28;20029;-81
2023/08/06 10:22:18;;;;;;;4.82;1.98;;;;;;;23.57;49.67;92811.81;5042114;28;20021;-81
2023/08/06 10:24:50;;;;;;;5.35;2.13;;;;;;;23.60;49.42;92809.03;5041566;28;20072;-80
2023/08/06 10:27:33;;;;;;;5.93;2.75;;;;;;;23.66;48.99;92805.84;5042652;28;20025;-81
2023/08/06 10:30:23;;;;;;;3.97;1.90;;;;;;;23.68;49.73;92817.81;5042655;28;20025;-80
2023/08/06 10:32:50;;;;;;;2.80;1.70;;;;;;;23.81;47.54;92812.50;5042786;28;20227;-81
2023/08/06 10:35:38;;;;;;;3.70;2.13;;;;;;;23.95;47.95;92820.34;5042667;28;20056;-81
2023/08/06 10:38:04;;;;;;;10.15;2.40;;;;;;;23.83;47.32;92823.72;5041372;28;20315;-81
2023/08/06 10:40:45;;;;;;;3.25;2.20;;;;;;;23.76;47.80;92826.59;5042669;28;20223;-82
2023/08/06 10:43:26;;;;;;;4.32;2.33;;;;;;;23.62;48.16;92838.53;5041318;28;20033;-80
2023/08/06 10:45:51;;;;;;;6.35;2.38;;;;;;;23.52;48.95;92831.38;5042834;28;20036;-80
2023/08/06 10:48:33;;;;;;;4.32;2.75;;;;;;;23.54;51.06;92848.78;5042653;28;20319;-80
2023/08/06 10:51:00;;;;;;;4.13;2.33;;;;;;;23.58;49.11;92848.72;5042408;28;20092;-80
2023/08/06 10:53:25;;;;;;;4.05;2.95;;;;;;;23.47;50.05;92845.44;5041267;28;20100;-80
2023/08/06 10:55:51;;;;;;;6.32;2.60;;;;;;;23.59;51.28;92844.81;5041544;28;20030;-80
2023/08/06 10:58:16;;;;;;;6.38;2.22;;;;;;;23.59;49.86;92850.25;5041433;28;20096;-80
2023/08/06 11:00:42;;;;;;;5.80;3.15;;;;;;;23.53;50.14;92854.66;5042324;28;20319;-80
2023/08/06 11:03:08;;;;;;;5.20;2.72;;;;;;;23.48;50.45;92847.00;5042410;28;20025;-80
2023/08/06 11:05:34;;;;;;;4.75;2.92;;;;;;;23.56;51.30;92857.28;5042234;28;20232;-80
2023/08/06 11:07:59;;;;;;;4.47;3.08;;;;;;;23.61;50.00;92858.75;5042342;28;20025;-80
2023/08/06 11:10:24;;;;;;;6.95;2.90;;;;;;;23.59;51.02;92850.25;5042305;28;20053;-80
2023/08/06 11:12:50;;;;;;;4.93;2.75;;;;;;;23.74;51.08;92851.50;5042370;28;20057;-80
2023/08/06 11:15:15;;;;;;;4.60;3.22;;;;;;;23.87;50.30;92848.16;5040931;28;20025;-80
2023/08/06 11:17:41;;;;;;;5.68;2.60;;;;;;;23.96;49.75;92857.28;5042179;28;20079;-80
2023/08/06 11:20:08;;;;;;;5.68;2.63;;;;;;;24.00;49.79;92865.38;5042004;28;20075;-80
2023/08/06 11:22:36;;;;;;;3.35;2.10;;;;;;;24.09;50.49;92870.22;5041070;28;20120;-80
2023/08/06 11:25:01;;;;;;;5.40;1.98;;;;;;;23.60;49.58;92887.16;5042122;28;20057;-79
2023/08/06 11:27:28;;;;;;;4.75;1.67;;;;;;;23.30;49.22;92890.84;5041951;28;20068;-80